Time;durP1;ratioP1;P1;durP2;ratioP2;P2;SDS_P1;SDS_P2;PMS_P1;PMS_P2;Temp;Humidity;BMP_temperature;BMP_pressure;BME280_temperature;BME280_humidity;BME280_pressure;Samples;Min_cycle;Max_cycle;Signal;HPM_P1;HPM_P2
2022/02/02 00:01:01;0.00;0.00;0.62;0.00;0.00;0.62;5.13;2.43;;;20.10;26.20;;;;;;2241235;62;20383;-62
2022/02/02 00:03:51;0.00;0.00;0.62;0.00;0.00;0.62;11.80;4.13;;;20.00;26.20;;;;;;2241604;62;20434;-62
2022/02/02 00:06:47;0.00;0.00;0.62;0.00;0.00;0.62;7.70;3.10;;;20.00;26.20;;;;;;2241089;62;20403;-62
2022/02/02 00:09:33;0.00;0.00;0.62;0.00;0.00;0.62;6.37;2.67;;;19.90;26.10;;;;;;2241224;62;20390;-62
2022/02/02 00:17:56;0.00;0.00;0.62;0.00;0.00;0.62;11.57;3.67;;;19.70;25.80;;;;;;2241679;62;20471;-63
2022/02/02 00:23:41;0.00;0.00;0.62;0.00;0.00;0.62;6.80;2.93;;;19.60;26.00;;;;;;2240984;62;20442;-62
2022/02/02 00:26:31;0.00;0.00;0.62;0.00;0.00;0.62;9.00;3.80;;;19.50;25.90;;;;;;2241085;62;20603;-62
2022/02/02 00:29:20;0.00;0.00;0.62;0.00;0.00;0.62;10.63;3.60;;;19.50;26.00;;;;;;2240665;62;20402;-62
2022/02/02 00:32:16;0.00;0.00;0.62;0.00;0.00;0.62;5.87;2.83;;;19.40;25.90;;;;;;2241249;62;20574;-62
2022/02/02 00:35:01;0.00;0.00;0.62;0.00;0.00;0.62;6.77;2.90;;;19.30;26.00;;;;;;2240615;62;20382;-62
2022/02/02 00:37:46;0.00;0.00;0.62;0.00;0.00;0.62;7.87;3.47;;;19.30;26.10;;;;;;2240770;62;20351;-62
2022/02/02 00:40:32;0.00;0.00;0.62;0.00;0.00;0.62;7.50;2.80;;;19.30;26.10;;;;;;2241517;62;20405;-62
2022/02/02 00:43:17;0.00;0.00;0.62;0.00;0.00;0.62;12.43;3.20;;;19.20;26.00;;;;;;2240336;62;20599;-62
2022/02/02 00:46:01;0.00;0.00;0.62;0.00;0.00;0.62;9.80;3.23;;;19.20;26.00;;;;;;2241806;62;20358;-62
2022/02/02 00:48:49;0.00;0.00;0.62;0.00;0.00;0.62;9.37;3.20;;;19.20;26.00;;;;;;2239392;62;20443;-60
2022/02/02 00:51:49;0.00;0.00;0.62;0.00;0.00;0.62;6.30;3.00;;;19.10;26.00;;;;;;2237645;62;20359;-60
2022/02/02 00:54:33;0.00;0.00;0.62;0.00;0.00;0.62;11.13;4.00;;;19.10;26.00;;;;;;2238281;62;20385;-62
2022/02/02 00:57:19;0.00;0.00;0.62;0.00;0.00;0.62;6.83;3.30;;;19.00;25.90;;;;;;2237295;62;20390;-60
2022/02/02 01:00:06;0.00;0.00;0.62;0.00;0.00;0.62;8.07;3.13;;;19.00;25.90;;;;;;2237534;62;20391;-61
2022/02/02 01:02:50;0.00;0.00;0.62;0.00;0.00;0.62;13.33;4.20;;;18.90;25.80;;;;;;2238527;62;20365;-61
2022/02/02 01:05:35;0.00;0.00;0.62;0.00;0.00;0.62;8.23;3.57;;;18.90;25.80;;;;;;2236995;62;20412;-61
2022/02/02 01:20:54;0.00;0.00;0.62;0.00;0.00;0.62;8.50;3.23;;;18.80;26.20;;;;;;2236623;62;20828;-61
2022/02/02 01:29:46;0.00;0.00;0.62;0.00;0.00;0.62;12.90;3.60;;;18.70;26.10;;;;;;2237502;62;20390;-63
2022/02/02 01:32:31;0.00;0.00;0.62;0.00;0.00;0.62;11.07;3.30;;;18.70;26.00;;;;;;2238139;62;20727;-63
2022/02/02 01:35:17;0.00;0.00;0.62;0.00;0.00;0.62;8.63;3.80;;;18.70;26.00;;;;;;2237208;62;20416;-61
2022/02/02 01:38:04;0.00;0.00;0.62;0.00;0.00;0.62;8.80;3.50;;;18.70;26.00;;;;;;2237746;62;20798;-61
2022/02/02 01:40:57;0.00;0.00;0.62;0.00;0.00;0.62;5.73;2.80;;;18.60;26.00;;;;;;2237429;62;20763;-63
2022/02/02 01:43:56;0.00;0.00;0.62;0.00;0.00;0.62;12.63;3.60;;;18.60;25.90;;;;;;2237427;62;20427;-62
2022/02/02 01:46:43;0.00;0.00;0.62;0.00;0.00;0.62;7.27;3.43;;;18.60;26.00;;;;;;2238193;62;20395;-62
2022/02/02 01:55:07;0.00;0.00;0.62;0.00;0.00;0.62;6.27;2.80;;;18.50;26.20;;;;;;2237517;62;20780;-63
2022/02/02 01:58:09;0.00;0.00;0.62;0.00;0.00;0.62;6.77;2.73;;;18.50;26.30;;;;;;2237424;62;20396;-62
2022/02/02 02:00:54;0.00;0.00;0.62;0.00;0.00;0.62;4.20;2.10;;;18.50;26.40;;;;;;2237771;62;20418;-62
2022/02/02 02:03:47;0.00;0.00;0.62;0.00;0.00;0.62;6.23;2.63;;;18.50;26.40;;;;;;2237176;62;20420;-61
2022/02/02 02:06:32;0.00;0.00;0.62;0.00;0.00;0.62;5.33;1.60;;;18.50;26.40;;;;;;2237422;62;20379;-62
2022/02/02 02:09:17;0.00;0.00;0.62;0.00;0.00;0.62;7.00;2.00;;;18.50;26.40;;;;;;2237794;62;20387;-62
2022/02/02 02:12:04;0.00;0.00;0.62;0.00;0.00;0.62;3.80;1.60;;;18.40;26.30;;;;;;2236409;62;20359;-61
2022/02/02 02:17:33;0.00;0.00;0.62;0.00;0.00;0.62;3.53;1.40;;;18.40;26.30;;;;;;2237205;62;20552;-61
2022/02/02 02:20:19;0.00;0.00;0.62;0.00;0.00;0.62;5.73;1.50;;;18.30;26.30;;;;;;2237462;62;20446;-62
2022/02/02 02:23:04;0.00;0.00;0.62;0.00;0.00;0.62;5.73;2.17;;;18.30;26.40;;;;;;2237710;62;20368;-62
2022/02/02 02:25:50;0.00;0.00;0.62;0.00;0.00;0.62;8.37;1.90;;;18.30;26.40;;;;;;2236872;62;20391;-62
2022/02/02 02:28:48;0.00;0.00;0.62;0.00;0.00;0.62;3.57;1.63;;;18.30;26.50;;;;;;2237378;62;20359;-62
2022/02/02 02:31:43;0.00;0.00;0.62;0.00;0.00;0.62;3.67;1.70;;;18.30;26.50;;;;;;2237943;62;20367;-62
2022/02/02 02:34:40;0.00;0.00;0.62;0.00;0.00;0.62;5.03;2.30;;;18.20;26.50;;;;;;2237032;62;20404;-62
2022/02/02 02:37:39;0.00;0.00;0.62;0.00;0.00;0.62;7.10;2.10;;;18.20;26.40;;;;;;2237488;62;20799;-61
2022/02/02 02:55:48;0.00;0.00;0.62;0.00;0.00;0.62;4.20;1.93;;;18.10;26.30;;;;;;2237228;62;20456;-62
2022/02/02 02:55:55;0.00;0.00;0.62;0.00;0.00;0.62;7.90;2.47;;;18.00;26.30;;;;;;2240831;62;20385;-60
2022/02/02 02:58:48;0.00;0.00;0.62;0.00;0.00;0.62;9.20;2.63;;;17.90;26.30;;;;;;2241124;62;20371;-62
2022/02/02 03:50:34;0.00;0.00;0.62;0.00;0.00;0.62;5.90;2.17;;;17.60;26.70;;;;;;2252157;62;20431;-62
2022/02/02 03:53:36;0.00;0.00;0.62;0.00;0.00;0.62;8.33;2.63;;;17.60;26.80;;;;;;2237770;62;20739;-62
2022/02/02 03:59:28;0.00;0.00;0.62;0.00;0.00;0.62;11.70;2.43;;;17.60;26.90;;;;;;2237367;62;20388;-62
2022/02/02 04:08:25;0.00;0.00;0.62;0.00;0.00;0.62;5.40;2.53;;;17.50;26.70;;;;;;2237325;62;20363;-62
2022/02/02 04:11:15;0.00;0.00;0.62;0.00;0.00;0.62;6.13;2.13;;;17.50;26.70;;;;;;2237125;62;20376;-61
2022/02/02 04:55:57;0.00;0.00;0.62;0.00;0.00;0.62;7.50;2.03;;;17.50;26.80;;;;;;2236982;62;20591;-62
2022/02/02 04:58:59;0.00;0.00;0.62;0.00;0.00;0.62;9.60;2.70;;;17.50;26.80;;;;;;2237395;62;20359;-62
2022/02/02 05:07:59;0.00;0.00;0.62;0.00;0.00;0.62;6.80;3.40;;;17.50;26.80;;;;;;2236939;62;20502;-60
2022/02/02 05:41:18;0.00;0.00;0.62;0.00;0.00;0.62;4.20;1.67;;;17.80;27.10;;;;;;2237678;62;20363;-60
2022/02/02 05:43:55;0.00;0.00;0.62;0.00;0.00;0.62;5.30;2.03;;;18.00;27.30;;;;;;2238178;62;20418;-59
2022/02/02 05:52:30;0.00;0.00;0.62;0.00;0.00;0.62;3.53;1.50;;;18.10;27.30;;;;;;2241472;62;20362;-60
2022/02/02 05:55:15;0.00;0.00;0.62;0.00;0.00;0.62;3.60;1.47;;;18.20;27.30;;;;;;2241461;62;20371;-61
2022/02/02 05:58:01;0.00;0.00;0.62;0.00;0.00;0.62;4.23;1.50;;;18.20;27.30;;;;;;2242263;62;20618;-61
2022/02/02 06:00:46;0.00;0.00;0.62;0.00;0.00;0.62;3.67;1.27;;;18.20;27.40;;;;;;2241264;62;21033;-62
2022/02/02 06:03:45;0.00;0.00;0.62;0.00;0.00;0.62;3.20;1.40;;;18.20;27.30;;;;;;2241359;62;20583;-63
2022/02/02 06:06:33;0.00;0.00;0.62;0.00;0.00;0.62;3.47;1.80;;;18.30;27.40;;;;;;2242057;62;20394;-61
2022/02/02 06:09:20;0.00;0.00;0.62;0.00;0.00;0.62;3.43;1.30;;;18.30;27.40;;;;;;2241423;62;20482;-60
2022/02/02 06:12:07;0.00;0.00;0.62;0.00;0.00;0.62;4.07;1.67;;;18.30;27.30;;;;;;2241551;62;20363;-62
2022/02/02 06:14:52;0.00;0.00;0.62;0.00;0.00;0.62;4.63;1.40;;;18.40;27.40;;;;;;2241458;62;20594;-61
2022/02/02 06:17:44;0.00;0.00;0.62;0.00;0.00;0.62;4.33;1.30;;;18.40;27.40;;;;;;2240664;62;20414;-60
2022/02/02 06:20:29;0.00;0.00;0.62;0.00;0.00;0.62;3.27;1.23;;;18.40;27.30;;;;;;2242246;62;20386;-61
2022/02/02 06:23:24;0.00;0.00;0.62;0.00;0.00;0.62;2.67;1.17;;;18.50;27.40;;;;;;2241111;62;20382;-62
2022/02/02 06:26:14;0.00;0.00;0.62;0.00;0.00;0.62;3.60;1.40;;;18.50;27.30;;;;;;2241401;62;20382;-61
2022/02/02 06:29:03;0.00;0.00;0.62;0.00;0.00;0.62;4.20;1.43;;;18.50;27.30;;;;;;2241252;62;20370;-62
2022/02/02 06:31:49;0.00;0.00;0.62;0.00;0.00;0.62;4.77;1.70;;;18.60;27.40;;;;;;2241057;62;20386;-63
2022/02/02 06:34:35;0.00;0.00;0.62;0.00;0.00;0.62;4.30;1.80;;;18.60;27.40;;;;;;2241731;62;20366;-63
2022/02/02 06:37:20;0.00;0.00;0.62;0.00;0.00;0.62;4.17;1.23;;;18.60;27.30;;;;;;2241322;62;20389;-62
2022/02/02 06:40:08;0.00;0.00;0.62;0.00;0.00;0.62;4.03;1.33;;;18.60;27.80;;;;;;2240970;62;20931;-62
2022/02/02 06:42:53;0.00;0.00;0.62;0.00;0.00;0.62;2.80;1.43;;;18.70;27.30;;;;;;2241946;62;20375;-62
2022/02/02 06:45:38;0.00;0.00;0.62;0.00;0.00;0.62;4.77;2.00;;;18.70;27.30;;;;;;2240609;62;20401;-62
2022/02/02 06:48:22;0.00;0.00;0.62;0.00;0.00;0.62;3.17;1.60;;;18.70;27.30;;;;;;2239641;62;20473;-62
2022/02/02 06:51:16;0.00;0.00;0.62;0.00;0.00;0.62;3.47;1.97;;;18.70;27.30;;;;;;2237524;62;20367;-61
2022/02/02 06:54:09;0.00;0.00;0.62;0.00;0.00;0.62;4.23;2.17;;;18.80;27.30;;;;;;2236720;62;20805;-62
2022/02/02 06:57:11;0.00;0.00;0.62;0.00;0.00;0.62;3.30;1.30;;;18.80;27.80;;;;;;2237586;62;20654;-60
2022/02/02 07:00:48;0.00;0.00;0.62;0.00;0.00;0.62;3.93;1.43;;;18.80;27.30;;;;;;2236735;62;20394;-60
2022/02/02 07:03:21;0.00;0.00;0.62;0.00;0.00;0.62;2.90;1.23;;;18.80;27.20;;;;;;2237382;62;20412;-60
2022/02/02 07:09:12;0.00;0.00;0.62;0.00;0.00;0.62;2.07;1.17;;;18.90;27.30;;;;;;2237159;62;20760;-61
2022/02/02 07:12:21;0.00;0.00;0.62;0.00;0.00;0.62;2.70;0.90;;;18.90;27.20;;;;;;2237968;62;20383;-60
2022/02/02 07:18:33;0.00;0.00;0.62;0.00;0.00;0.62;2.40;1.23;;;18.90;27.20;;;;;;2237440;62;20399;-62
2022/02/02 07:21:35;0.00;0.00;0.62;0.00;0.00;0.62;2.60;1.10;;;19.00;27.20;;;;;;2237258;62;20379;-60
2022/02/02 07:24:39;0.00;0.00;0.62;0.00;0.00;0.62;3.07;1.50;;;19.00;27.20;;;;;;2237264;62;20371;-61
2022/02/02 07:33:21;0.00;0.00;0.62;0.00;0.00;0.62;2.80;1.30;;;19.00;27.20;;;;;;2236975;62;20371;-62
2022/02/02 07:36:12;0.00;0.00;0.62;0.00;0.00;0.62;1.97;1.03;;;19.00;27.20;;;;;;2237117;62;20614;-62
2022/02/02 07:39:04;0.00;0.00;0.62;0.00;0.00;0.62;2.87;1.50;;;19.10;27.20;;;;;;2236987;62;20388;-61
2022/02/02 07:41:50;0.00;0.00;0.62;0.00;0.00;0.62;2.33;1.30;;;19.10;27.20;;;;;;2237761;62;20368;-60
2022/02/02 07:44:40;0.00;0.00;0.62;0.00;0.00;0.62;3.70;1.17;;;19.10;27.20;;;;;;2236763;62;20416;-63
2022/02/02 07:47:26;0.00;0.00;0.62;0.00;0.00;0.62;1.97;1.00;;;19.10;27.10;;;;;;2237423;62;20376;-62
2022/02/02 07:50:12;0.00;0.00;0.62;0.00;0.00;0.62;2.60;1.40;;;19.10;27.10;;;;;;2248864;58;20489;-62
2022/02/02 07:53:06;0.00;0.00;0.62;0.00;0.00;0.62;3.57;1.10;;;19.20;27.20;;;;;;2236961;62;20386;-60
2022/02/02 07:55:51;0.00;0.00;0.62;0.00;0.00;0.62;2.17;1.00;;;19.20;27.10;;;;;;2237234;62;20367;-60
2022/02/02 07:58:38;0.00;0.00;0.62;0.00;0.00;0.62;2.77;1.10;;;19.20;27.10;;;;;;2237039;62;20692;-61
2022/02/02 08:01:24;0.00;0.00;0.62;0.00;0.00;0.62;1.90;1.10;;;19.20;27.10;;;;;;2236529;62;20359;-61
2022/02/02 08:04:09;0.00;0.00;0.62;0.00;0.00;0.62;2.33;1.10;;;19.20;27.10;;;;;;2237731;62;20451;-62
2022/02/02 08:06:55;0.00;0.00;0.62;0.00;0.00;0.62;3.20;1.20;;;19.20;27.10;;;;;;2236802;62;20444;-62
2022/02/02 08:09:50;0.00;0.00;0.62;0.00;0.00;0.62;2.10;1.13;;;19.20;27.00;;;;;;2237046;62;20383;-61
2022/02/02 08:12:43;0.00;0.00;0.62;0.00;0.00;0.62;1.50;0.90;;;19.20;27.00;;;;;;2236954;62;20367;-61
2022/02/02 08:15:32;0.00;0.00;0.62;0.00;0.00;0.62;2.00;1.00;;;19.30;27.10;;;;;;2237046;62;20359;-62
2022/02/02 08:18:18;0.00;0.00;0.62;0.00;0.00;0.62;2.90;1.20;;;19.30;27.10;;;;;;2237108;62;20812;-62
2022/02/02 08:21:03;0.00;0.00;0.62;0.00;0.00;0.62;2.97;1.10;;;19.30;27.10;;;;;;2236842;62;20394;-62
2022/02/02 08:23:48;0.00;0.00;0.62;0.00;0.00;0.62;2.50;1.30;;;19.30;27.10;;;;;;2236956;62;20449;-60
2022/02/02 08:26:32;0.00;0.00;0.62;0.00;0.00;0.62;2.53;1.10;;;19.30;27.00;;;;;;2237480;62;20758;-60
2022/02/02 08:29:17;0.00;0.00;0.62;0.00;0.00;0.62;1.50;0.90;;;19.30;27.00;;;;;;2236455;62;20416;-61
2022/02/02 08:32:03;0.00;0.00;0.62;0.00;0.00;0.62;4.03;1.57;;;19.30;27.00;;;;;;2236766;62;20391;-62
2022/02/02 08:34:51;0.00;0.00;0.62;0.00;0.00;0.62;2.90;1.30;;;19.40;27.10;;;;;;2236964;62;20403;-63
2022/02/02 08:37:38;0.00;0.00;0.62;0.00;0.00;0.62;2.13;1.00;;;19.40;27.10;;;;;;2236544;62;20388;-63
2022/02/02 08:40:28;0.00;0.00;0.62;0.00;0.00;0.62;2.87;1.10;;;19.40;27.00;;;;;;2237089;62;20476;-62
2022/02/02 08:43:19;0.00;0.00;0.62;0.00;0.00;0.62;2.07;0.90;;;19.40;27.00;;;;;;2236761;62;20783;-62
2022/02/02 08:46:09;0.00;0.00;0.62;0.00;0.00;0.62;2.93;1.10;;;19.40;27.00;;;;;;2236863;62;20407;-62
2022/02/02 08:48:56;0.00;0.00;0.62;0.00;0.00;0.62;2.03;0.97;;;19.40;27.00;;;;;;2237752;62;20364;-59
2022/02/02 08:51:45;0.00;0.00;0.62;0.00;0.00;0.62;2.00;1.00;;;19.40;27.00;;;;;;2236416;62;20461;-60
2022/02/02 08:54:36;0.00;0.00;0.62;0.00;0.00;0.62;3.67;1.17;;;19.50;27.00;;;;;;2237079;62;20379;-63
2022/02/02 09:00:25;0.00;0.00;0.62;0.00;0.00;0.62;1.83;1.00;;;19.50;27.40;;;;;;2236508;62;20386;-62
2022/02/02 09:06:15;0.00;0.00;0.62;0.00;0.00;0.62;1.80;0.90;;;19.50;27.00;;;;;;2236427;62;20445;-62
2022/02/02 09:09:10;0.00;0.00;0.62;0.00;0.00;0.62;1.90;0.83;;;19.50;27.00;;;;;;2237758;62;20371;-62
2022/02/02 09:24:19;0.00;0.00;0.62;0.00;0.00;0.62;3.20;1.17;;;19.60;27.00;;;;;;2237721;62;20398;-62
2022/02/02 09:33:32;0.00;0.00;0.62;0.00;0.00;0.62;2.00;1.00;;;19.60;27.00;;;;;;2238227;62;20391;-62
2022/02/02 09:36:11;0.00;0.00;0.62;0.00;0.00;0.62;2.03;1.00;;;19.60;27.00;;;;;;2236996;62;20435;-61
2022/02/02 09:38:59;0.00;0.00;0.62;0.00;0.00;0.62;1.70;0.90;;;19.70;27.10;;;;;;2237603;62;20588;-60
2022/02/02 09:42:01;0.00;0.00;0.62;0.00;0.00;0.62;1.50;0.80;;;19.70;27.10;;;;;;2237678;62;20368;-62
2022/02/02 09:44:51;0.00;0.00;0.62;0.00;0.00;0.62;1.73;0.87;;;19.70;27.00;;;;;;2237393;62;20366;-60
2022/02/02 09:47:44;0.00;0.00;0.62;0.00;0.00;0.62;1.70;0.77;;;19.70;27.00;;;;;;2238326;62;20355;-60
2022/02/02 09:50:42;0.00;0.00;0.62;0.00;0.00;0.62;1.83;0.90;;;19.70;27.00;;;;;;2372706;53;20393;-60
2022/02/02 09:54:16;0.00;0.00;0.62;0.00;0.00;0.62;1.70;0.93;;;19.70;27.00;;;;;;2241719;62;20370;-62
2022/02/02 10:02:36;0.00;0.00;0.62;0.00;0.00;0.62;1.30;0.60;;;19.80;27.00;;;;;;2242057;62;20734;-62
2022/02/02 10:14:39;0.00;0.00;0.62;0.00;0.00;0.62;2.07;0.97;;;19.80;27.00;;;;;;2241175;62;20411;-61
2022/02/02 10:17:31;0.00;0.00;0.62;0.00;0.00;0.62;1.40;0.80;;;19.90;27.00;;;;;;2241748;62;20385;-61
2022/02/02 10:20:21;0.00;0.00;0.62;0.00;0.00;0.62;1.33;0.73;;;19.90;27.00;;;;;;2240644;61;20766;-62
2022/02/02 10:23:08;0.00;0.00;0.62;0.00;0.00;0.62;2.60;0.90;;;19.90;27.00;;;;;;2241467;62;20723;-62
2022/02/02 10:26:00;0.00;0.00;0.62;0.00;0.00;0.62;1.83;0.70;;;19.90;26.90;;;;;;2241362;62;20382;-61
2022/02/02 10:28:45;0.00;0.00;0.62;0.00;0.00;0.62;1.90;0.97;;;20.00;27.00;;;;;;2241207;61;20433;-60
2022/02/02 10:31:40;0.00;0.00;0.62;0.00;0.00;0.62;1.87;0.90;;;20.00;27.00;;;;;;2241638;62;20596;-62
2022/02/02 10:34:25;0.00;0.00;0.62;0.00;0.00;0.62;2.47;1.00;;;20.00;27.00;;;;;;2240855;62;20390;-61
2022/02/02 10:37:19;0.00;0.00;0.62;0.00;0.00;0.62;1.90;1.10;;;20.00;26.90;;;;;;2241160;62;20510;-61
2022/02/02 10:40:08;0.00;0.00;0.62;0.00;0.00;0.62;3.03;1.00;;;20.00;27.00;;;;;;2241889;61;20391;-62
2022/02/02 10:42:53;0.00;0.00;0.62;0.00;0.00;0.62;1.60;0.87;;;20.00;27.00;;;;;;2241065;62;20371;-62
2022/02/02 10:45:38;0.00;0.00;0.62;0.00;0.00;0.62;1.40;0.80;;;20.10;27.00;;;;;;2241571;62;20447;-62
2022/02/02 10:49:03;0.00;0.00;0.62;0.00;0.00;0.62;1.40;0.70;;;20.10;27.00;;;;;;2240797;62;20427;-62
2022/02/02 10:54:27;0.00;0.00;0.62;0.00;0.00;0.62;1.87;0.80;;;20.10;27.00;;;;;;2241799;62;20410;-61
2022/02/02 11:00:53;0.00;0.00;0.62;0.00;0.00;0.62;2.13;0.93;;;20.20;27.00;;;;;;2241431;62;20385;-60
2022/02/02 11:06:42;0.00;0.00;0.62;0.00;0.00;0.62;1.80;1.00;;;20.20;27.00;;;;;;2241000;62;20383;-62
2022/02/02 11:09:29;0.00;0.00;0.62;0.00;0.00;0.62;1.73;0.80;;;20.30;27.00;;;;;;2241791;62;20387;-62
2022/02/02 11:12:16;0.00;0.00;0.62;0.00;0.00;0.62;2.07;0.80;;;20.20;26.90;;;;;;2240696;62;20699;-61
2022/02/02 11:15:17;0.00;0.00;0.62;0.00;0.00;0.62;1.60;0.70;;;20.20;26.90;;;;;;2241367;62;20398;-61
2022/02/02 11:18:12;0.00;0.00;0.62;0.00;0.00;0.62;1.90;0.90;;;20.30;26.90;;;;;;2240911;62;20401;-61
2022/02/02 11:21:07;0.00;0.00;0.62;0.00;0.00;0.62;1.60;0.80;;;20.30;27.00;;;;;;2241184;62;20394;-62
2022/02/02 11:23:52;0.00;0.00;0.62;0.00;0.00;0.62;1.50;0.80;;;20.30;27.00;;;;;;2241694;62;20374;-61
2022/02/02 11:26:40;0.00;0.00;0.62;0.00;0.00;0.62;1.63;0.70;;;20.30;27.10;;;;;;2240811;62;20474;-62
2022/02/02 11:29:40;0.00;0.00;0.62;0.00;0.00;0.62;1.70;0.93;;;20.30;27.20;;;;;;2241332;61;20389;-61
2022/02/02 11:32:38;0.00;0.00;0.62;0.00;0.00;0.62;2.00;0.90;;;20.40;27.20;;;;;;2241107;62;20438;-61
2022/02/02 11:35:37;0.00;0.00;0.62;0.00;0.00;0.62;1.20;0.60;;;20.40;27.20;;;;;;2241392;62;20362;-61
2022/02/02 11:38:40;0.00;0.00;0.62;0.00;0.00;0.62;1.40;0.80;;;20.40;27.20;;;;;;2241502;62;20397;-62
2022/02/02 11:41:47;0.00;0.00;0.62;0.00;0.00;0.62;1.77;0.97;;;20.50;27.30;;;;;;2240896;62;20374;-61
2022/02/02 11:44:43;0.00;0.00;0.62;0.00;0.00;0.62;2.90;0.80;;;20.50;27.30;;;;;;2241329;62;20410;-61
2022/02/02 11:47:40;0.00;0.00;0.62;0.00;0.00;0.62;1.50;0.80;;;20.60;27.30;;;;;;2240821;62;20413;-62
2022/02/02 11:50:46;0.00;0.00;0.62;0.00;0.00;0.62;1.33;0.70;;;20.60;27.10;;;;;;2484869;54;20419;-60
2022/02/02 11:54:01;0.00;0.00;0.62;0.00;0.00;0.62;2.30;1.07;;;20.60;27.00;;;;;;2237165;62;20359;-62
2022/02/02 11:57:17;0.00;0.00;0.62;0.00;0.00;0.62;1.70;0.80;;;20.60;27.00;;;;;;2236579;62;20519;-61
2022/02/02 12:00:18;0.00;0.00;0.62;0.00;0.00;0.62;1.40;0.83;;;20.70;27.10;;;;;;2237101;62;20394;-62
2022/02/02 12:06:11;0.00;0.00;0.62;0.00;0.00;0.62;1.70;0.70;;;20.80;27.20;;;;;;2236787;62;20366;-63
2022/02/02 12:09:06;0.00;0.00;0.62;0.00;0.00;0.62;1.47;0.70;;;20.80;27.20;;;;;;2237330;62;20446;-60
2022/02/02 12:27:46;0.00;0.00;0.62;0.00;0.00;0.62;2.10;0.80;;;20.90;27.20;;;;;;2237146;62;20464;-62
2022/02/02 12:46:37;0.00;0.00;0.62;0.00;0.00;0.62;1.40;0.70;;;21.00;27.20;;;;;;2237843;62;20371;-62
2022/02/02 12:58:08;0.00;0.00;0.62;0.00;0.00;0.62;1.30;0.70;;;21.10;27.30;;;;;;2236748;62;20435;-61
2022/02/02 13:01:10;0.00;0.00;0.62;0.00;0.00;0.62;1.50;1.10;;;21.10;27.30;;;;;;2237721;62;20395;-62
2022/02/02 13:03:57;0.00;0.00;0.62;0.00;0.00;0.62;1.30;0.70;;;21.10;27.20;;;;;;2236841;62;20407;-60
2022/02/02 13:06:42;0.00;0.00;0.62;0.00;0.00;0.62;1.53;0.77;;;21.20;27.20;;;;;;2237224;62;20412;-61
2022/02/02 13:09:27;0.00;0.00;0.62;0.00;0.00;0.62;2.20;0.90;;;21.20;27.20;;;;;;2236968;62;20763;-62
2022/02/02 13:12:32;0.00;0.00;0.62;0.00;0.00;0.62;1.87;0.70;;;21.20;27.10;;;;;;2236748;62;20586;-63
2022/02/02 13:15:44;0.00;0.00;0.62;0.00;0.00;0.62;1.73;0.97;;;21.20;27.10;;;;;;2237693;62;20366;-63
2022/02/02 13:18:38;0.00;0.00;0.62;0.00;0.00;0.62;1.30;0.70;;;21.20;27.10;;;;;;2236556;62;20391;-61
2022/02/02 13:21:31;0.00;0.00;0.62;0.00;0.00;0.62;2.03;0.83;;;21.30;27.20;;;;;;2237338;62;20395;-61
2022/02/02 13:24:23;0.00;0.00;0.62;0.00;0.00;0.62;1.20;0.60;;;21.30;27.20;;;;;;2236803;62;20416;-61
2022/02/02 13:27:16;0.00;0.00;0.62;0.00;0.00;0.62;1.87;0.80;;;21.30;27.20;;;;;;2236918;62;20470;-61
2022/02/02 13:30:05;0.00;0.00;0.62;0.00;0.00;0.62;1.30;0.73;;;21.30;27.30;;;;;;2237553;62;20767;-62
2022/02/02 13:32:53;0.00;0.00;0.62;0.00;0.00;0.62;2.30;0.90;;;21.30;27.20;;;;;;2236278;62;20367;-62
2022/02/02 13:35:50;0.00;0.00;0.62;0.00;0.00;0.62;1.33;0.67;;;21.30;27.30;;;;;;2237224;62;20477;-60
2022/02/02 13:38:49;0.00;0.00;0.62;0.00;0.00;0.62;1.40;0.70;;;21.40;27.30;;;;;;2236503;62;20387;-62
2022/02/02 13:48:15;0.00;0.00;0.62;0.00;0.00;0.62;1.20;0.60;;;21.40;27.20;;;;;;2237234;62;20362;-60
2022/02/02 14:33:03;0.00;0.00;0.62;0.00;0.00;0.62;1.47;0.80;;;21.70;27.30;;;;;;2241364;62;20406;-61
2022/02/02 14:35:53;0.00;0.00;0.62;0.00;0.00;0.62;1.77;0.87;;;21.70;27.30;;;;;;2241854;62;20438;-63
2022/02/02 14:38:47;0.00;0.00;0.62;0.00;0.00;0.62;1.20;0.60;;;21.70;27.30;;;;;;2240821;62;20540;-62
2022/02/02 14:41:42;0.00;0.00;0.62;0.00;0.00;0.62;1.50;0.67;;;21.70;27.30;;;;;;2241279;62;20369;-63
2022/02/02 14:44:32;0.00;0.00;0.62;0.00;0.00;0.62;1.73;0.70;;;21.80;27.30;;;;;;2242022;62;20366;-61
2022/02/02 14:47:23;0.00;0.00;0.62;0.00;0.00;0.62;1.87;0.70;;;21.80;27.30;;;;;;2241255;62;20410;-62
2022/02/02 14:50:17;0.00;0.00;0.62;0.00;0.00;0.62;1.30;0.70;;;21.80;27.30;;;;;;2254809;58;20391;-62
2022/02/02 14:56:09;0.00;0.00;0.62;0.00;0.00;0.62;1.50;0.70;;;21.90;27.20;;;;;;2237149;62;20371;-62
2022/02/02 15:27:15;0.00;0.00;0.62;0.00;0.00;0.62;1.50;0.70;;;22.00;27.00;;;;;;2237416;62;20383;-60
2022/02/02 15:32:18;0.00;0.00;0.62;0.00;0.00;0.62;1.40;0.80;;;22.00;27.00;;;;;;2237283;62;20436;-62
2022/02/02 15:35:04;0.00;0.00;0.62;0.00;0.00;0.62;1.20;0.70;;;22.00;26.90;;;;;;2237854;62;20371;-62
2022/02/02 15:38:02;0.00;0.00;0.62;0.00;0.00;0.62;1.30;0.67;;;22.00;26.90;;;;;;2236845;62;20390;-62
2022/02/02 15:40:57;0.00;0.00;0.62;0.00;0.00;0.62;1.23;0.60;;;22.00;26.90;;;;;;2237258;62;20395;-62
2022/02/02 15:57:08;0.00;0.00;0.62;0.00;0.00;0.62;1.57;0.60;;;22.00;26.70;;;;;;2241304;62;20542;-62
2022/02/02 16:05:54;0.00;0.00;0.62;0.00;0.00;0.62;1.10;0.60;;;22.00;26.70;;;;;;2239815;62;20496;-62
2022/02/02 16:08:40;0.00;0.00;0.62;0.00;0.00;0.62;1.30;0.70;;;22.00;26.70;;;;;;2240386;62;20353;-62
2022/02/02 16:11:29;0.00;0.00;0.62;0.00;0.00;0.62;1.60;0.90;;;22.00;26.70;;;;;;2241274;62;20367;-62
2022/02/02 16:14:23;0.00;0.00;0.62;0.00;0.00;0.62;1.43;0.80;;;22.00;26.70;;;;;;2241051;62;20480;-61
2022/02/02 16:17:20;0.00;0.00;0.62;0.00;0.00;0.62;2.50;0.73;;;22.00;26.70;;;;;;2240640;62;20378;-62
2022/02/02 16:35:50;0.00;0.00;0.62;0.00;0.00;0.62;1.40;0.80;;;21.90;26.50;;;;;;2241707;62;20358;-61
2022/02/02 16:38:38;0.00;0.00;0.62;0.00;0.00;0.62;1.43;0.77;;;21.90;26.50;;;;;;2240665;62;20443;-63
2022/02/02 16:44:27;0.00;0.00;0.62;0.00;0.00;0.62;1.90;1.30;;;22.00;26.60;;;;;;2240727;62;20667;-63
2022/02/02 16:47:12;0.00;0.00;0.62;0.00;0.00;0.62;2.07;1.37;;;21.90;26.50;;;;;;2240817;62;20386;-62
2022/02/02 16:49:56;0.00;0.00;0.62;0.00;0.00;0.62;1.70;1.10;;;21.90;26.50;;;;;;2250618;62;20423;-63
2022/02/02 16:52:41;0.00;0.00;0.62;0.00;0.00;0.62;2.17;0.90;;;21.90;26.50;;;;;;2236504;62;20475;-62
2022/02/02 16:55:37;0.00;0.00;0.62;0.00;0.00;0.62;1.90;1.20;;;21.90;26.50;;;;;;2237212;62;20359;-62
2022/02/02 17:31:56;0.00;0.00;0.62;0.00;0.00;0.62;1.60;0.90;;;21.90;26.80;;;;;;2241641;62;20361;-62
2022/02/02 17:34:51;0.00;0.00;0.62;0.00;0.00;0.62;2.17;1.10;;;21.80;26.80;;;;;;2242201;62;20375;-62
2022/02/02 17:40:39;0.00;0.00;0.62;0.00;0.00;0.62;2.20;1.30;;;21.90;26.90;;;;;;2241520;61;20390;-62
2022/02/02 17:59:19;0.00;0.00;0.62;0.00;0.00;0.62;1.63;0.90;;;21.80;26.90;;;;;;2241448;62;20394;-62
2022/02/02 18:19:50;0.00;0.00;0.62;0.00;0.00;0.62;1.90;1.37;;;21.80;27.00;;;;;;2239977;62;20739;-62
2022/02/02 18:22:40;0.00;0.00;0.62;0.00;0.00;0.62;1.60;1.10;;;21.80;27.00;;;;;;2241393;62;20400;-63
2022/02/02 18:28:22;0.00;0.00;0.62;0.00;0.00;0.62;1.60;1.00;;;21.80;27.00;;;;;;2237138;62;20407;-63
2022/02/02 18:34:24;0.00;0.00;0.62;0.00;0.00;0.62;1.70;1.10;;;21.80;27.10;;;;;;2237406;62;20732;-62
2022/02/02 18:58:02;0.00;0.00;0.62;0.00;0.00;0.62;1.70;1.00;;;21.80;27.10;;;;;;2241546;62;20382;-62
2022/02/02 19:40:17;0.00;0.00;0.62;0.00;0.00;0.62;1.70;1.10;;;21.80;27.40;;;;;;2237798;62;20649;-60
2022/02/02 19:52:34;0.00;0.00;0.62;0.00;0.00;0.62;1.60;1.00;;;21.80;27.40;;;;;;2237100;62;20359;-61
2022/02/02 19:55:30;0.00;0.00;0.62;0.00;0.00;0.62;1.43;0.90;;;21.80;27.40;;;;;;2237698;62;20383;-62
2022/02/02 20:12:54;0.00;0.00;0.62;0.00;0.00;0.62;1.80;1.00;;;21.80;27.40;;;;;;2237103;62;20363;-63
2022/02/02 20:15:40;0.00;0.00;0.62;0.00;0.00;0.62;1.60;1.10;;;21.80;27.40;;;;;;2237376;62;20399;-62
2022/02/02 20:18:26;0.00;0.00;0.62;0.00;0.00;0.62;1.57;0.90;;;21.80;27.40;;;;;;2236848;62;20383;-63
2022/02/02 20:21:12;0.00;0.00;0.62;0.00;0.00;0.62;1.77;1.00;;;21.80;27.40;;;;;;2237169;62;20601;-62
2022/02/02 20:23:58;0.00;0.00;0.62;0.00;0.00;0.62;1.60;1.13;;;21.80;27.40;;;;;;2237655;62;20731;-63
2022/02/02 20:26:47;0.00;0.00;0.62;0.00;0.00;0.62;1.33;0.87;;;21.80;27.40;;;;;;2236766;62;20386;-62
2022/02/02 20:29:32;0.00;0.00;0.62;0.00;0.00;0.62;1.40;1.00;;;21.80;27.40;;;;;;2237101;62;20759;-62
2022/02/02 20:32:18;0.00;0.00;0.62;0.00;0.00;0.62;1.87;1.40;;;21.90;27.50;;;;;;2237582;62;20364;-64
2022/02/02 20:35:05;0.00;0.00;0.62;0.00;0.00;0.62;1.53;0.80;;;21.90;27.50;;;;;;2237139;62;20588;-63
2022/02/02 20:37:49;0.00;0.00;0.62;0.00;0.00;0.62;4.17;1.00;;;21.80;27.40;;;;;;2237204;62;20444;-63
2022/02/02 20:40:34;0.00;0.00;0.62;0.00;0.00;0.62;1.57;0.83;;;21.90;27.50;;;;;;2237096;62;20387;-60
2022/02/02 20:43:34;0.00;0.00;0.62;0.00;0.00;0.62;1.60;0.90;;;21.90;27.50;;;;;;2237230;62;20415;-63
2022/02/02 20:46:47;0.00;0.00;0.62;0.00;0.00;0.62;1.53;0.90;;;21.90;27.50;;;;;;2237637;62;20389;-61
2022/02/02 21:10:35;0.00;0.00;0.62;0.00;0.00;0.62;1.77;1.10;;;21.90;27.50;;;;;;2241642;62;20651;-63